Time;durP1;ratioP1;P1;durP2;ratioP2;P2;SDS_P1;SDS_P2;PMS_P1;PMS_P2;Temp;Humidity;BMP_temperature;BMP_pressure;BME280_temperature;BME280_humidity;BME280_pressure;Samples;Min_cycle;Max_cycle;Signal;HPM_P1;HPM_P2
2021/10/15 00:01:42;;;;;;;20.95;7.05;;;;;;;12.42;95.19;99694.97;5011917;28;20464;-77
2021/10/15 00:04:07;;;;;;;19.25;6.28;;;;;;;12.43;95.03;99688.38;5011583;28;20036;-77
2021/10/15 00:06:33;;;;;;;19.88;6.60;;;;;;;12.46;95.19;99686.13;5012556;28;20025;-77
2021/10/15 00:08:59;;;;;;;19.15;6.13;;;;;;;12.46;95.20;99667.81;4994333;28;20034;-77
2021/10/15 00:11:25;;;;;;;11.63;5.78;;;;;;;12.46;94.99;99661.53;5012408;28;20072;-77
2021/10/15 00:13:50;;;;;;;19.85;7.90;;;;;;;12.42;95.09;99672.31;4994162;28;20037;-77
2021/10/15 00:16:15;;;;;;;16.73;6.20;;;;;;;12.35;95.41;99658.25;5012380;28;20080;-76
2021/10/15 00:18:42;;;;;;;29.13;7.28;;;;;;;12.29;96.15;99662.25;4990947;28;20050;-76
2021/10/15 00:21:07;;;;;;;22.05;5.72;;;;;;;12.25;96.31;99645.69;4979413;28;20030;-76
2021/10/15 00:23:33;;;;;;;15.10;4.32;;;;;;;12.21;96.73;99656.41;4978262;28;20026;-76
2021/10/15 00:25:58;;;;;;;11.52;4.80;;;;;;;12.19;97.10;99641.44;4996811;28;20417;-76
2021/10/15 00:28:23;;;;;;;24.35;5.82;;;;;;;12.15;97.53;99627.63;4994519;28;20398;-76
2021/10/15 00:30:49;;;;;;;14.73;5.05;;;;;;;12.15;97.75;99629.53;4994535;28;20038;-76
2021/10/15 00:33:14;;;;;;;17.25;4.60;;;;;;;12.12;98.04;99652.84;4978332;28;20022;-76
2021/10/15 00:35:40;;;;;;;18.80;5.85;;;;;;;12.12;98.45;99630.97;4996454;28;20405;-76
2021/10/15 00:38:05;;;;;;;27.88;6.63;;;;;;;12.13;98.74;99629.03;4995470;28;20490;-76
2021/10/15 00:40:31;;;;;;;15.38;4.72;;;;;;;12.12;98.69;99657.50;4996075;28;20042;-76
2021/10/15 00:42:56;;;;;;;9.27;2.97;;;;;;;11.92;98.33;99659.63;4978083;28;20035;-76
2021/10/15 00:45:21;;;;;;;18.33;2.38;;;;;;;11.79;98.01;99641.34;4995291;28;20359;-76
2021/10/15 00:47:47;;;;;;;10.68;2.17;;;;;;;11.74;97.88;99630.53;4977809;28;20100;-76
2021/10/15 00:50:14;;;;;;;11.05;2.28;;;;;;;11.71;97.94;99609.31;4978870;28;20036;-75
2021/10/15 00:52:40;;;;;;;14.35;2.72;;;;;;;11.72;97.78;99643.69;4993598;28;20054;-75
2021/10/15 00:55:05;;;;;;;18.83;2.45;;;;;;;11.76;97.81;99629.09;4979886;28;20031;-75
2021/10/15 00:57:31;;;;;;;9.80;1.65;;;;;;;11.78;97.20;99631.50;4989298;28;20038;-74
2021/10/15 00:59:56;;;;;;;10.90;2.45;;;;;;;11.82;97.09;99605.22;4993837;28;20026;-76
2021/10/15 01:02:21;;;;;;;15.75;2.75;;;;;;;11.85;96.82;99587.41;4978612;28;20496;-76
2021/10/15 01:04:47;;;;;;;13.70;3.25;;;;;;;11.89;96.67;99611.06;4994734;28;20026;-75
2021/10/15 01:07:12;;;;;;;15.77;2.08;;;;;;;11.92;96.28;99609.63;4996131;28;20030;-76
2021/10/15 01:09:38;;;;;;;11.00;2.28;;;;;;;11.93;96.03;99601.13;4993808;28;20033;-75
2021/10/15 01:12:04;;;;;;;12.45;1.92;;;;;;;11.95;95.51;99617.22;4995892;28;20106;-75
2021/10/15 01:14:29;;;;;;;9.05;1.73;;;;;;;11.92;94.73;99583.16;4976764;28;20026;-76
2021/10/15 01:16:55;;;;;;;9.75;1.80;;;;;;;11.92;94.68;99605.00;4995246;28;20031;-77
2021/10/15 01:19:21;;;;;;;11.48;2.72;;;;;;;11.97;94.19;99615.75;5011837;28;20104;-76
2021/10/15 01:21:46;;;;;;;11.57;1.95;;;;;;;12.03;94.15;99615.63;5015187;28;20030;-76
2021/10/15 01:24:14;;;;;;;10.13;1.20;;;;;;;12.02;93.77;99624.97;5014149;28;20033;-76
2021/10/15 01:26:40;;;;;;;9.82;2.60;;;;;;;12.05;93.46;99606.00;4981461;28;20022;-76
2021/10/15 01:29:05;;;;;;;14.02;2.50;;;;;;;12.07;93.31;99605.72;5013072;28;20036;-76
2021/10/15 01:31:30;;;;;;;5.95;1.77;;;;;;;12.03;92.38;99621.09;5014159;28;20026;-77
2021/10/15 01:33:57;;;;;;;10.77;2.78;;;;;;;11.99;91.60;99599.88;5013768;28;20393;-77
2021/10/15 01:36:22;;;;;;;17.92;2.63;;;;;;;11.98;91.25;99606.47;4981303;28;20029;-76
2021/10/15 01:38:48;;;;;;;8.05;1.83;;;;;;;11.99;90.74;99599.88;4996282;28;20025;-76
2021/10/15 01:41:13;;;;;;;7.95;1.60;;;;;;;11.97;90.14;99607.56;4997440;28;20037;-77
2021/10/15 01:43:38;;;;;;;15.15;2.28;;;;;;;11.90;89.50;99588.09;4979875;28;20026;-76
2021/10/15 01:46:04;;;;;;;14.65;2.25;;;;;;;11.81;89.45;99592.66;5014620;28;20029;-75
2021/10/15 01:48:29;;;;;;;9.25;1.80;;;;;;;11.76;88.77;99579.16;5013826;28;20480;-76
2021/10/15 01:50:54;;;;;;;11.32;2.03;;;;;;;11.71;87.66;99590.19;4995811;28;20032;-76
2021/10/15 01:53:20;;;;;;;8.10;1.75;;;;;;;11.68;87.12;99604.47;5001685;28;20026;-77
2021/10/15 01:55:46;;;;;;;10.50;2.92;;;;;;;11.64;86.66;99593.34;5014661;28;20022;-76
2021/10/15 01:58:11;;;;;;;14.20;3.65;;;;;;;11.63;86.86;99586.28;5013427;28;20389;-76
2021/10/15 02:00:37;;;;;;;12.00;2.53;;;;;;;11.64;86.72;99592.53;5010429;28;20040;-75
2021/10/15 02:03:02;;;;;;;9.68;2.17;;;;;;;11.62;85.84;99609.25;4995202;28;20068;-77
2021/10/15 02:05:27;;;;;;;12.57;2.80;;;;;;;11.61;84.98;99584.97;5014370;28;20032;-76
2021/10/15 02:07:53;;;;;;;17.00;2.45;;;;;;;11.61;84.77;99588.50;4995809;28;20033;-77
2021/10/15 02:10:18;;;;;;;17.20;2.92;;;;;;;11.61;84.85;99626.72;5001694;28;20040;-77
2021/10/15 02:12:45;;;;;;;17.30;2.85;;;;;;;11.60;84.65;99592.38;5014339;28;20022;-76
2021/10/15 02:15:12;;;;;;;14.13;3.30;;;;;;;11.60;84.79;99575.19;4995492;28;20030;-76
2021/10/15 02:17:37;;;;;;;17.65;3.05;;;;;;;11.61;84.22;99577.59;4980417;28;20080;-76
2021/10/15 02:20:04;;;;;;;22.00;3.20;;;;;;;11.63;83.92;99574.56;4995773;28;20104;-75
2021/10/15 02:22:30;;;;;;;13.30;3.85;;;;;;;11.61;83.46;99574.06;5012902;28;20025;-74
2021/10/15 02:24:55;;;;;;;18.30;3.00;;;;;;;11.61;83.34;99574.88;5013059;28;20090;-75
2021/10/15 02:27:20;;;;;;;16.70;2.95;;;;;;;11.65;82.85;99605.06;4996700;28;20022;-75
2021/10/15 02:29:46;;;;;;;13.27;2.85;;;;;;;11.63;82.38;99626.44;5007616;28;20461;-76
2021/10/15 02:32:11;;;;;;;19.05;2.60;;;;;;;11.63;82.50;99585.50;5013740;28;20075;-75
2021/10/15 02:34:36;;;;;;;12.70;2.40;;;;;;;11.60;82.04;99606.03;5013089;28;20088;-75
2021/10/15 02:37:02;;;;;;;14.13;3.40;;;;;;;11.58;81.34;99588.34;5013724;28;20025;-76
2021/10/15 02:39:27;;;;;;;13.77;2.50;;;;;;;11.54;81.29;99588.97;5013004;28;20026;-76
2021/10/15 02:41:53;;;;;;;20.35;3.50;;;;;;;11.54;81.32;99594.41;5013054;28;20034;-76
2021/10/15 02:44:18;;;;;;;15.80;2.75;;;;;;;11.54;81.81;99566.31;4995131;28;20465;-77
2021/10/15 02:46:44;;;;;;;16.60;2.90;;;;;;;11.55;82.23;99551.53;4996122;28;20033;-76
2021/10/15 02:49:10;;;;;;;21.70;3.78;;;;;;;11.53;82.17;99576.41;5012459;28;20125;-76
2021/10/15 02:51:35;;;;;;;16.58;3.05;;;;;;;11.54;82.37;99575.31;4996465;28;20629;-76
2021/10/15 02:54:01;;;;;;;17.42;3.38;;;;;;;11.57;82.12;99587.53;5012614;28;20025;-75
2021/10/15 02:56:27;;;;;;;14.05;2.22;;;;;;;11.56;82.16;99589.44;5013371;28;20376;-75
2021/10/15 02:58:52;;;;;;;18.80;2.80;;;;;;;11.60;81.94;99599.75;4994167;28;20409;-76
2021/10/15 03:01:17;;;;;;;20.42;3.17;;;;;;;11.62;81.97;99586.59;5013315;28;20026;-75
2021/10/15 03:03:43;;;;;;;14.10;2.45;;;;;;;11.63;81.93;99588.22;5012351;28;20045;-75
2021/10/15 03:06:08;;;;;;;24.00;4.20;;;;;;;11.61;80.86;99584.97;5013136;28;20388;-76
2021/10/15 03:08:35;;;;;;;10.85;2.55;;;;;;;11.60;80.52;99578.72;4994899;28;20377;-76
2021/10/15 03:11:01;;;;;;;8.98;2.65;;;;;;;11.62;80.49;99589.31;5013260;28;20420;-75
2021/10/15 03:13:26;;;;;;;15.80;3.47;;;;;;;11.61;79.71;99571.34;5012028;28;20018;-75
2021/10/15 03:15:51;;;;;;;8.18;2.45;;;;;;;11.64;79.74;99565.25;4995816;28;20017;-76
2021/10/15 03:18:17;;;;;;;15.90;3.55;;;;;;;11.62;79.37;99590.16;4994199;28;20102;-76
2021/10/15 03:20:43;;;;;;;16.83;3.10;;;;;;;11.64;79.47;99587.88;5013163;28;20644;-76
2021/10/15 03:23:10;;;;;;;20.80;3.55;;;;;;;11.65;79.47;99585.97;4994803;28;20038;-76
2021/10/15 03:25:35;;;;;;;19.08;2.50;;;;;;;11.61;79.07;99577.59;5011904;28;20428;-76
2021/10/15 03:28:00;;;;;;;14.55;3.28;;;;;;;11.56;78.46;99583.97;4994623;28;20021;-75
2021/10/15 03:30:26;;;;;;;14.68;2.92;;;;;;;11.53;78.13;99603.69;4998999;28;20029;-76
2021/10/15 03:32:51;;;;;;;8.57;2.17;;;;;;;11.47;76.49;99571.41;4995687;28;20025;-76
2021/10/15 03:35:17;;;;;;;16.63;3.50;;;;;;;11.43;76.06;99579.41;4994334;28;20026;-76
2021/10/15 03:37:42;;;;;;;13.63;2.85;;;;;;;11.42;76.08;99579.69;5012938;28;20079;-77
2021/10/15 03:40:08;;;;;;;18.25;3.05;;;;;;;11.41;76.24;99562.53;5011727;28;20029;-75
2021/10/15 03:42:34;;;;;;;19.10;3.40;;;;;;;11.42;76.46;99553.22;4994181;28;20080;-76
2021/10/15 03:44:59;;;;;;;19.50;2.65;;;;;;;11.40;76.22;99571.81;4994248;28;20428;-76
2021/10/15 03:47:25;;;;;;;12.52;2.80;;;;;;;11.37;76.35;99598.91;4995317;28;20432;-75
2021/10/15 03:49:51;;;;;;;19.95;3.28;;;;;;;11.35;76.41;99591.06;5012029;28;20030;-76
2021/10/15 03:52:17;;;;;;;13.35;3.15;;;;;;;11.32;75.92;99587.03;5012759;28;20038;-76
2021/10/15 03:54:42;;;;;;;19.27;2.60;;;;;;;11.32;76.24;99586.19;5013808;28;20036;-76
2021/10/15 03:57:07;;;;;;;12.38;2.90;;;;;;;11.32;76.44;99565.19;5016862;28;20032;-76
2021/10/15 03:59:33;;;;;;;11.68;2.90;;;;;;;11.36;76.58;99559.91;5014435;28;20033;-76
2021/10/15 04:01:58;;;;;;;18.77;2.95;;;;;;;11.37;75.74;99561.50;4999402;28;20037;-76
2021/10/15 04:04:24;;;;;;;22.63;2.85;;;;;;;11.38;75.78;99567.81;5015375;28;20440;-76
2021/10/15 04:06:50;;;;;;;19.75;3.00;;;;;;;11.38;75.31;99556.88;5016562;28;20033;-77
2021/10/15 04:09:16;;;;;;;18.23;2.67;;;;;;;11.41;75.79;99559.78;5015770;28;20030;-77
2021/10/15 04:11:41;;;;;;;15.90;2.97;;;;;;;11.43;76.01;99568.50;5016409;28;20022;-77
2021/10/15 04:14:07;;;;;;;19.13;2.63;;;;;;;11.46;75.57;99581.50;5015385;28;20404;-75
2021/10/15 04:16:33;;;;;;;15.93;3.33;;;;;;;11.49;75.78;99569.97;5016148;28;20036;-76
2021/10/15 04:18:58;;;;;;;20.17;3.60;;;;;;;11.53;76.29;99553.78;5015495;28;20477;-76
2021/10/15 04:21:25;;;;;;;15.30;3.80;;;;;;;11.54;76.15;99582.69;4982521;28;20021;-76
2021/10/15 04:23:50;;;;;;;15.85;3.75;;;;;;;11.55;76.10;99574.19;5015392;28;20042;-76
2021/10/15 04:26:16;;;;;;;10.93;2.80;;;;;;;11.55;75.82;99555.06;5016243;28;20033;-76
2021/10/15 04:28:41;;;;;;;10.18;2.60;;;;;;;11.53;75.20;99546.38;4996956;28;20063;-77
2021/10/15 04:31:07;;;;;;;14.02;3.40;;;;;;;11.52;75.41;99536.59;4981465;28;20512;-77
2021/10/15 04:33:32;;;;;;;19.58;3.55;;;;;;;11.53;75.59;99554.56;5015340;28;20041;-77
2021/10/15 04:35:57;;;;;;;20.38;4.00;;;;;;;11.51;75.84;99559.56;4997850;28;20466;-77
2021/10/15 04:38:23;;;;;;;23.00;2.90;;;;;;;11.49;76.16;99559.06;5016011;28;20026;-77
2021/10/15 04:40:48;;;;;;;21.98;2.78;;;;;;;11.48;76.71;99571.06;4997675;28;20370;-77
2021/10/15 04:43:14;;;;;;;19.90;3.72;;;;;;;11.47;76.50;99563.22;5004243;28;20034;-76
2021/10/15 04:45:39;;;;;;;20.77;3.67;;;;;;;11.46;76.58;99570.59;5012733;28;20500;-76
2021/10/15 04:48:04;;;;;;;20.30;3.72;;;;;;;11.48;76.99;99567.53;5015841;28;20034;-76
2021/10/15 04:50:30;;;;;;;13.30;2.67;;;;;;;11.47;77.09;99542.19;5014932;28;20037;-76
2021/10/15 04:52:56;;;;;;;16.40;3.50;;;;;;;11.47;76.98;99553.09;4998135;28;20022;-76
2021/10/15 04:55:21;;;;;;;21.40;3.08;;;;;;;11.46;77.12;99540.56;5011234;28;20048;-77
2021/10/15 04:57:47;;;;;;;18.60;3.53;;;;;;;11.46;77.24;99562.41;5013825;28;20408;-77
2021/10/15 05:00:12;;;;;;;13.73;2.63;;;;;;;11.47;77.07;99561.28;5007795;28;20033;-76
2021/10/15 05:02:39;;;;;;;17.88;3.85;;;;;;;11.47;77.45;99571.41;5015635;28;20063;-76
2021/10/15 05:05:07;;;;;;;18.33;3.03;;;;;;;11.49;77.37;99522.78;4996642;28;20164;-76
2021/10/15 05:07:32;;;;;;;12.80;3.22;;;;;;;11.49;76.51;99531.75;5015420;28;20029;-76
2021/10/15 05:09:58;;;;;;;15.93;3.35;;;;;;;11.48;76.16;99608.47;5014301;28;20069;-76
2021/10/15 05:12:23;;;;;;;24.27;4.05;;;;;;;11.48;75.85;99543.78;5015379;28;20026;-76
2021/10/15 05:14:50;;;;;;;15.95;2.47;;;;;;;11.49;75.75;99542.69;4997020;28;20029;-76
2021/10/15 05:17:16;;;;;;;14.48;2.40;;;;;;;11.48;75.40;99546.50;5015105;28;20604;-75
2021/10/15 05:19:41;;;;;;;17.75;2.42;;;;;;;11.50;75.51;99549.75;4996464;28;20029;-77
2021/10/15 05:22:06;;;;;;;7.55;2.13;;;;;;;11.52;75.76;99533.06;4997716;28;20030;-75
2021/10/15 05:24:32;;;;;;;14.30;2.83;;;;;;;11.48;75.07;99556.63;5011961;28;20033;-76
2021/10/15 05:26:57;;;;;;;15.60;3.30;;;;;;;11.48;74.86;99556.63;4996348;28;20029;-77
2021/10/15 05:29:23;;;;;;;19.52;2.92;;;;;;;11.49;75.13;99536.41;4996806;28;20034;-76
2021/10/15 05:31:48;;;;;;;12.77;1.80;;;;;;;11.47;74.56;99533.19;5002299;28;20029;-76
2021/10/15 05:34:13;;;;;;;10.88;2.45;;;;;;;11.46;74.14;99548.75;5019895;28;20032;-76
2021/10/15 05:36:39;;;;;;;14.35;3.03;;;;;;;11.48;73.72;99534.78;5023191;28;20030;-76
2021/10/15 05:39:04;;;;;;;9.00;2.33;;;;;;;11.47;73.69;99558.53;5000740;28;20026;-77
2021/10/15 05:41:31;;;;;;;9.65;1.88;;;;;;;11.46;74.03;99520.66;5023020;28;20054;-76
2021/10/15 05:43:58;;;;;;;8.80;2.13;;;;;;;11.45;73.79;99533.47;5022431;28;20026;-77
2021/10/15 05:46:24;;;;;;;9.98;1.83;;;;;;;11.42;73.09;99515.00;5008545;28;20029;-75
2021/10/15 05:48:49;;;;;;;12.55;2.30;;;;;;;11.42;72.54;99536.84;4989163;28;20037;-77
2021/10/15 05:51:15;;;;;;;9.30;1.70;;;;;;;11.43;73.01;99543.94;5005705;28;20029;-78
2021/10/15 05:53:40;;;;;;;11.82;1.88;;;;;;;11.46;73.44;99532.38;5004439;28;20033;-77
2021/10/15 05:56:25;;;;;;;11.43;1.60;;;;;;;11.49;73.86;99542.69;4998221;28;20432;-76
2021/10/15 05:58:50;;;;;;;11.30;2.05;;;;;;;11.47;72.91;99536.72;4999436;28;20184;-76
2021/10/15 06:01:22;;;;;;;12.50;1.85;;;;;;;11.48;73.30;99545.69;4982165;28;20082;-76
2021/10/15 06:03:59;;;;;;;11.40;2.08;;;;;;;11.49;72.83;99575.44;4983042;28;20041;-76
2021/10/15 06:14:36;;;;;;;7.03;1.92;;;;;;;11.51;72.24;99586.84;4998919;28;20022;-76
2021/10/15 06:17:11;;;;;;;7.32;1.30;;;;;;;11.49;71.58;99559.06;5013737;28;20026;-76
2021/10/15 06:19:52;;;;;;;9.40;1.50;;;;;;;11.50;71.44;99587.94;4997461;28;20042;-77
2021/10/15 06:22:22;;;;;;;7.43;1.50;;;;;;;11.51;71.23;99573.19;4967980;28;20088;-77
2021/10/15 06:24:49;;;;;;;12.60;2.13;;;;;;;11.51;71.42;99578.66;5005793;28;20027;-77
2021/10/15 06:27:17;;;;;;;8.85;1.50;;;;;;;11.52;71.71;99563.88;4996642;28;20429;-77
2021/10/15 06:29:42;;;;;;;9.70;2.22;;;;;;;11.52;71.27;99563.88;5013333;28;20076;-77
2021/10/15 06:32:08;;;;;;;7.05;2.05;;;;;;;11.52;71.39;99590.38;5013981;28;20026;-77
2021/10/15 06:34:33;;;;;;;8.68;1.67;;;;;;;11.51;71.62;99575.09;4995693;28;20038;-76
2021/10/15 06:36:59;;;;;;;8.25;1.77;;;;;;;11.50;71.88;99568.84;5014191;28;20037;-76
2021/10/15 06:39:24;;;;;;;11.73;2.65;;;;;;;11.52;72.16;99577.53;5013090;28;20041;-76
2021/10/15 06:41:51;;;;;;;7.35;2.13;;;;;;;11.53;72.51;99597.44;5013701;28;20029;-76
2021/10/15 06:44:16;;;;;;;12.07;2.10;;;;;;;11.53;72.38;99602.91;4995185;28;20121;-76
2021/10/15 06:46:42;;;;;;;4.95;1.50;;;;;;;11.54;72.08;99575.31;5013759;28;20030;-76
2021/10/15 06:49:09;;;;;;;13.00;2.25;;;;;;;11.60;71.92;99591.56;5013624;28;20030;-75
2021/10/15 06:51:35;;;;;;;5.03;1.20;;;;;;;11.61;71.90;99598.63;4995424;28;20040;-76
2021/10/15 06:54:00;;;;;;;6.53;1.45;;;;;;;11.59;71.54;99584.47;4992749;28;20030;-76
2021/10/15 06:56:26;;;;;;;5.53;1.08;;;;;;;11.56;71.00;99586.69;5012689;28;20025;-76
2021/10/15 06:58:51;;;;;;;10.80;1.67;;;;;;;11.54;70.86;99596.34;5013705;28;20021;-76
2021/10/15 07:01:16;;;;;;;8.07;1.67;;;;;;;11.50;70.68;99598.88;5012368;28;20361;-76
2021/10/15 07:03:42;;;;;;;5.32;0.90;;;;;;;11.48;70.30;99600.28;5012300;28;20038;-76
2021/10/15 07:06:07;;;;;;;8.90;1.20;;;;;;;11.47;69.77;99599.50;5012116;28;20057;-77
2021/10/15 07:08:33;;;;;;;11.00;1.40;;;;;;;11.47;69.73;99618.59;5013603;28;20149;-76
2021/10/15 07:10:58;;;;;;;6.18;1.10;;;;;;;11.48;69.85;99616.66;5012315;28;20492;-76
2021/10/15 07:13:23;;;;;;;6.95;1.08;;;;;;;11.48;70.10;99617.47;5013165;28;20388;-76
2021/10/15 07:15:49;;;;;;;5.88;1.50;;;;;;;11.50;70.32;99623.44;5012480;28;20018;-76
2021/10/15 07:18:14;;;;;;;5.78;1.40;;;;;;;11.54;70.43;99638.09;5012944;28;20456;-76
2021/10/15 07:20:42;;;;;;;9.38;1.42;;;;;;;11.58;70.36;99632.81;5012511;28;20436;-76
2021/10/15 07:23:12;;;;;;;6.63;1.88;;;;;;;11.63;70.38;99610.06;4974365;28;20029;-76
2021/10/15 07:25:38;;;;;;;4.15;0.82;;;;;;;11.70;70.26;99640.44;5012532;28;20034;-76
2021/10/15 07:28:04;;;;;;;9.18;1.08;;;;;;;11.75;69.69;99664.91;5013071;28;20034;-76
2021/10/15 07:30:29;;;;;;;7.65;1.15;;;;;;;11.81;69.16;99641.81;5012018;28;20037;-75
2021/10/15 07:32:55;;;;;;;2.60;0.90;;;;;;;11.89;68.92;99649.28;4995443;28;20473;-76
2021/10/15 07:35:22;;;;;;;6.13;1.00;;;;;;;11.94;68.71;99638.25;5011791;28;20524;-76
2021/10/15 07:37:47;;;;;;;5.40;1.63;;;;;;;11.97;68.12;99648.53;5013053;28;20473;-77
2021/10/15 07:40:12;;;;;;;1.67;0.68;;;;;;;11.95;67.67;99653.53;5011867;28;20026;-76
2021/10/15 07:42:38;;;;;;;6.63;0.82;;;;;;;11.92;67.68;99643.22;5013154;28;20032;-76
2021/10/15 07:45:04;;;;;;;6.75;0.90;;;;;;;11.90;67.43;99659.13;5011882;28;20025;-76
2021/10/15 07:47:29;;;;;;;3.22;0.70;;;;;;;11.86;67.87;99651.84;5012698;28;20030;-76
2021/10/15 07:49:54;;;;;;;6.75;0.60;;;;;;;11.84;67.17;99659.50;5012006;28;20045;-76
2021/10/15 07:52:20;;;;;;;4.35;1.17;;;;;;;11.83;66.83;99661.44;4995290;28;20489;-77
2021/10/15 07:54:45;;;;;;;4.38;1.15;;;;;;;11.83;66.73;99671.53;5011895;28;20018;-77
2021/10/15 07:57:12;;;;;;;3.72;0.80;;;;;;;11.85;66.49;99685.72;5012838;28;20029;-77
2021/10/15 07:59:38;;;;;;;4.22;0.70;;;;;;;11.88;66.64;99685.13;5012155;28;20477;-76
2021/10/15 08:02:03;;;;;;;5.07;1.00;;;;;;;11.88;66.11;99685.91;5012226;28;20040;-76
2021/10/15 08:04:29;;;;;;;5.15;0.88;;;;;;;11.91;66.27;99696.22;5011804;28;20045;-77
2021/10/15 08:06:54;;;;;;;3.03;0.70;;;;;;;11.93;66.60;99710.38;5011494;28;20034;-77
2021/10/15 08:09:20;;;;;;;4.93;0.57;;;;;;;11.96;66.17;99696.09;4995304;28;20030;-77
2021/10/15 08:11:45;;;;;;;9.55;0.95;;;;;;;11.97;65.80;99703.16;5011814;28;20022;-77
2021/10/15 08:14:10;;;;;;;6.25;1.38;;;;;;;11.97;65.41;99699.63;5012703;28;20030;-77
2021/10/15 08:16:36;;;;;;;2.80;0.80;;;;;;;11.94;64.68;99689.34;4994147;28;20029;-76
2021/10/15 08:19:03;;;;;;;6.75;0.90;;;;;;;11.93;64.63;99706.84;5011542;28;20422;-78
2021/10/15 08:21:29;;;;;;;3.70;0.57;;;;;;;11.92;64.76;99706.03;5008736;28;20489;-76
2021/10/15 08:23:55;;;;;;;5.97;1.10;;;;;;;11.90;65.04;99716.47;5012385;28;20084;-76
2021/10/15 08:26:21;;;;;;;3.90;0.70;;;;;;;11.89;65.02;99725.75;5011567;28;20037;-77
2021/10/15 08:28:47;;;;;;;4.20;0.43;;;;;;;11.84;63.76;99728.59;5012299;28;20026;-77
2021/10/15 08:31:13;;;;;;;2.50;1.08;;;;;;;11.78;62.09;99729.81;4992073;28;20469;-77
2021/10/15 08:33:40;;;;;;;0.95;0.30;;;;;;;11.76;62.19;99742.97;5010992;28;20038;-76
2021/10/15 08:36:05;;;;;;;2.70;0.52;;;;;;;11.72;62.23;99752.88;5011683;28;20026;-76
2021/10/15 08:38:31;;;;;;;3.28;0.93;;;;;;;11.70;62.18;99753.22;5012358;28;20034;-76
2021/10/15 08:40:56;;;;;;;3.20;0.50;;;;;;;11.71;62.47;99756.75;5013484;28;20069;-76
2021/10/15 08:43:32;;;;;;;1.67;0.47;;;;;;;11.69;62.15;99754.31;5016086;28;20385;-76
2021/10/15 08:46:00;;;;;;;1.27;0.73;;;;;;;11.68;61.84;99779.19;4997235;28;20026;-76
2021/10/15 08:48:25;;;;;;;1.35;0.30;;;;;;;11.68;61.79;99781.94;5014940;28;20029;-77
2021/10/15 08:50:50;;;;;;;2.85;0.43;;;;;;;11.65;61.15;99785.25;5013108;28;20026;-78
2021/10/15 08:53:16;;;;;;;1.38;0.30;;;;;;;11.63;60.85;99790.22;4985516;28;20358;-77
2021/10/15 08:55:41;;;;;;;0.85;0.30;;;;;;;11.61;60.71;99801.44;5015270;28;20025;-77
2021/10/15 08:58:07;;;;;;;0.60;0.20;;;;;;;11.60;59.69;99826.31;4998126;28;20057;-77
2021/10/15 09:00:36;;;;;;;0.22;0.20;;;;;;;11.56;59.17;99821.44;5015003;28;20500;-78
2021/10/15 09:03:12;;;;;;;3.53;1.88;;;;;;;11.54;59.43;99825.63;5015516;28;20109;-77
2021/10/15 09:05:39;;;;;;;0.63;0.30;;;;;;;11.53;59.34;99849.34;5014327;28;20021;-78
2021/10/15 09:08:04;;;;;;;0.63;0.20;;;;;;;11.51;58.57;99843.41;5015520;28;20048;-77
2021/10/15 09:10:30;;;;;;;4.50;1.17;;;;;;;11.50;58.59;99862.81;5014773;28;20026;-77
2021/10/15 09:12:58;;;;;;;2.42;0.40;;;;;;;11.47;57.65;99866.94;4997865;28;20030;-77
2021/10/15 09:15:33;;;;;;;0.25;0.20;;;;;;;11.43;57.30;99859.66;5014560;28;20054;-78
2021/10/15 09:18:08;;;;;;;0.30;0.22;;;;;;;11.42;56.39;99874.44;4996786;28;20096;-78
2021/10/15 09:20:36;;;;;;;1.02;0.20;;;;;;;11.39;56.14;99878.56;4995520;28;20030;-77
2021/10/15 09:23:02;;;;;;;0.30;0.20;;;;;;;11.37;55.89;99915.44;4992375;28;20389;-78
2021/10/15 09:25:38;;;;;;;0.25;0.20;;;;;;;11.36;55.87;99909.19;5014225;28;20121;-78
2021/10/15 09:28:14;;;;;;;1.35;0.28;;;;;;;11.35;55.52;99907.59;4998123;28;20036;-77
2021/10/15 09:30:40;;;;;;;0.25;0.20;;;;;;;11.35;54.73;99904.84;5014445;28;20030;-77
2021/10/15 09:33:06;;;;;;;0.30;0.20;;;;;;;11.33;54.06;99926.97;5015188;28;20028;-78
2021/10/15 09:35:32;;;;;;;3.30;0.65;;;;;;;11.32;54.15;99949.09;4996476;28;20029;-78
2021/10/15 09:38:05;;;;;;;0.40;0.20;;;;;;;11.34;54.21;99960.53;4997557;28;20486;-78
2021/10/15 09:40:42;;;;;;;0.63;0.30;;;;;;;11.36;53.65;99941.13;5013855;28;20033;-77
2021/10/15 09:43:09;;;;;;;0.45;0.20;;;;;;;11.36;54.19;99974.69;4997839;28;20385;-77
2021/10/15 09:45:43;;;;;;;0.25;0.20;;;;;;;11.37;53.72;99965.38;5012918;28;20188;-77
2021/10/15 09:48:26;;;;;;;0.20;0.20;;;;;;;11.42;54.54;99973.47;4967568;28;20041;-77
2021/10/15 09:51:17;;;;;;;0.28;0.20;;;;;;;11.45;53.65;99972.88;5013504;28;20022;-77
2021/10/15 09:54:22;;;;;;;0.20;0.20;;;;;;;11.45;52.24;99972.06;4997709;28;20033;-77
2021/10/15 09:56:49;;;;;;;0.30;0.10;;;;;;;11.46;51.59;99992.81;5006693;28;20504;-77
2021/10/15 09:59:15;;;;;;;1.17;0.20;;;;;;;11.48;51.17;99985.13;4997473;28;20053;-77
2021/10/15 10:01:43;;;;;;;0.30;0.30;;;;;;;11.50;51.78;99983.72;5013893;28;20259;-77
2021/10/15 10:04:10;;;;;;;0.10;0.10;;;;;;;11.51;51.42;99987.25;4977897;28;20301;-76
2021/10/15 10:06:36;;;;;;;1.75;0.15;;;;;;;11.52;51.70;99992.41;5012044;28;20033;-77
2021/10/15 10:09:02;;;;;;;1.25;0.32;;;;;;;11.58;52.30;100006.78;4997050;28;20018;-77
2021/10/15 10:11:28;;;;;;;1.23;0.60;;;;;;;11.60;51.87;100001.03;5013457;28;20025;-77
2021/10/15 10:13:53;;;;;;;0.28;0.10;;;;;;;11.62;51.69;100005.09;4996960;28;20029;-77
2021/10/15 10:16:20;;;;;;;1.70;0.50;;;;;;;11.65;51.01;100020.03;4995715;28;20484;-76
2021/10/15 10:18:45;;;;;;;1.20;0.20;;;;;;;11.68;51.76;100016.72;4976102;28;20083;-77
2021/10/15 10:21:21;;;;;;;0.20;0.20;;;;;;;11.70;51.29;100019.94;4976473;28;20053;-77
2021/10/15 10:24:08;;;;;;;1.23;0.20;;;;;;;11.75;51.19;100025.31;4978415;28;20473;-77
2021/10/15 10:27:03;;;;;;;0.10;0.10;;;;;;;11.80;51.47;100033.44;4992041;28;20097;-77
2021/10/15 10:29:28;;;;;;;0.10;0.10;;;;;;;11.85;51.67;100047.00;4988759;28;20042;-77
2021/10/15 10:32:17;;;;;;;1.17;0.77;;;;;;;11.94;52.40;100050.69;4993225;28;20034;-76
2021/10/15 10:34:42;;;;;;;3.88;0.47;;;;;;;12.01;50.91;100054.97;4974431;28;20413;-77
2021/10/15 10:37:09;;;;;;;2.30;0.30;;;;;;;12.02;50.63;100070.22;4992072;28;20037;-76
2021/10/15 10:39:37;;;;;;;0.45;0.20;;;;;;;12.05;50.20;100061.44;4977143;28;20026;-77
2021/10/15 10:42:03;;;;;;;0.20;0.17;;;;;;;12.07;49.96;100065.47;4991774;28;20058;-76
2021/10/15 10:44:37;;;;;;;0.30;0.20;;;;;;;12.12;49.92;100086.44;4992882;28;20053;-77
2021/10/15 10:47:15;;;;;;;1.85;0.47;;;;;;;12.20;49.78;100091.22;4981069;28;20389;-77
2021/10/15 10:49:42;;;;;;;7.53;1.00;;;;;;;12.22;48.45;100083.50;4991847;28;20018;-77
2021/10/15 10:52:09;;;;;;;1.45;0.20;;;;;;;12.26;48.35;100100.94;4976166;28;20034;-77
2021/10/15 10:54:34;;;;;;;0.20;0.20;;;;;;;12.30;48.13;100101.94;4993771;28;20030;-77
2021/10/15 10:57:14;;;;;;;1.08;0.40;;;;;;;12.39;48.78;100102.88;4991785;28;20026;-77
2021/10/15 10:59:41;;;;;;;0.80;0.20;;;;;;;12.45;48.05;100098.09;4993802;28;20019;-77
2021/10/15 11:02:18;;;;;;;0.30;0.20;;;;;;;12.50;47.70;100087.09;4975605;28;20034;-77
2021/10/15 11:04:43;;;;;;;0.98;0.50;;;;;;;12.54;47.44;100095.47;4993693;28;20022;-77
2021/10/15 11:07:20;;;;;;;0.20;0.20;;;;;;;12.54;46.56;100090.81;4992827;28;20531;-76
2021/10/15 11:09:57;;;;;;;0.52;0.22;;;;;;;12.57;46.80;100124.94;4993597;28;20034;-77
2021/10/15 11:12:28;;;;;;;1.00;0.30;;;;;;;12.66;46.64;100110.28;4992717;28;20034;-76
2021/10/15 11:14:55;;;;;;;1.92;0.28;;;;;;;12.69;46.00;100125.25;4993517;28;20036;-76
2021/10/15 11:17:34;;;;;;;4.70;0.40;;;;;;;12.73;46.10;100133.66;4976092;28;20030;-77
2021/10/15 11:20:17;;;;;;;0.45;0.20;;;;;;;12.79;46.25;100146.91;5013097;28;20041;-78
2021/10/15 11:22:47;;;;;;;1.58;1.15;;;;;;;12.83;45.52;100147.94;5012399;28;20095;-78
2021/10/15 11:25:12;;;;;;;1.75;0.30;;;;;;;12.91;46.08;100148.34;5012898;28;20056;-77
2021/10/15 11:27:37;;;;;;;0.57;0.20;;;;;;;12.99;45.72;100150.38;5002592;28;20030;-76
2021/10/15 11:30:08;;;;;;;1.60;0.30;;;;;;;13.02;44.90;100155.25;5008760;28;20030;-78
2021/10/15 11:32:41;;;;;;;0.40;0.28;;;;;;;13.05;44.25;100163.63;4995053;28;20032;-76
2021/10/15 11:35:28;;;;;;;0.70;0.40;;;;;;;13.10;44.29;100165.47;4995399;28;20556;-77
2021/10/15 11:38:02;;;;;;;0.65;0.28;;;;;;;13.18;44.67;100181.16;5006141;28;20034;-78